首页
METAR-TAF:

METAR-TAF

机场 :

Harlingen, 得克萨斯州, 美国

纬度: 26-13-47N, 经度: 097-39-19W, 海拔: 10米

当前天气观测

该预报发布于31分钟前的20:52 UTC
风速14节,风向,有时为25节阵风
温度 36°C
湿度 57%
气压 1004 hPa
能見度: 9.7公里
散云层高于4000英尺

METAR: KHRL 262052Z 18014G25KT 6SM HZ SCT040 36/26 A2966 RMK AO2 PK WND 17026/1954 SLP042 T03610261 56016

时间: 16:23 (21:23 UTC)

预报

该预报发布于2小时和5分钟前的19:18 UTC
预报有效从26日的 19点(UTC)到 27日的 18点(UTC)
风速16节,风向,有时为27节阵风
能見度: 10公里
散云层高于4000英尺
从 26日的 2300点(UTC)
风速15节,风向南转南东,有时为23节阵风
能見度: 10公里
天空无云
从 27日的 0900点(UTC)
风速8节,风向南转南东
能見度: 10公里
散云层高于1200英尺
从 27日的 1100点(UTC)
风速8节,风向南转南东
能見度: 10公里
多云层高于1100英尺
从 27日的 1300点(UTC)
风速8节,风向南转南东
能見度: 10公里
少量云层高于1000英尺

TAF: KHRL 261918Z 2619/2718 17016G27KT P6SM SCT040 FM262300 15015G23KT P6SM SKC FM270900 15008KT P6SM SCT012 FM271100 15008KT P6SM BKN011 FM271300 15008KT P6SM FEW010

超过4000个机场的气象观测和天气预报(METAR&TAF报告)。

可查询的气象台以黄色和红色小点在地图上表示。

将鼠标移到小点上方,可查看气象台名称。

然后点击查看天气观测和预报。

如需切换地图:点击带黑十字的绿色按钮放大地图;点击带横线的绿色按钮缩小地图;或者点击绿色箭头查看邻近地区的地图。


METAR-TAF: